Time;durP1;ratioP1;P1;durP2;ratioP2;P2;SDS_P1;SDS_P2;PMS_P1;PMS_P2;Temp;Humidity;BMP_temperature;BMP_pressure;BME280_temperature;BME280_humidity;BME280_pressure;Samples;Min_cycle;Max_cycle;Signal;HPM_P1;HPM_P2
2022/02/24 00:01:01;;;;;;;12.07;2.87;;;10.20;90.30;;;;;;5086978;28;20408;-72
2022/02/24 00:03:28;;;;;;;14.07;3.15;;;10.20;90.30;;;;;;5088373;28;20457;-72
2022/02/24 00:05:56;;;;;;;12.60;3.03;;;10.30;90.40;;;;;;5084895;28;20441;-71
2022/02/24 00:08:22;;;;;;;14.23;2.92;;;10.20;90.40;;;;;;5092336;28;20532;-72
2022/02/24 00:10:48;;;;;;;14.25;3.05;;;10.30;90.50;;;;;;5080862;28;20796;-72
2022/02/24 00:13:15;;;;;;;14.40;3.10;;;10.20;90.30;;;;;;5086803;28;20436;-72
2022/02/24 00:15:44;;;;;;;14.60;2.85;;;10.20;90.40;;;;;;5088904;28;20900;-72
2022/02/24 00:18:10;;;;;;;15.85;3.50;;;10.30;90.20;;;;;;5075513;28;20405;-72
2022/02/24 00:20:36;;;;;;;14.85;3.00;;;10.20;90.10;;;;;;5099509;28;20439;-72
2022/02/24 00:23:01;;;;;;;13.10;2.73;;;10.20;90.20;;;;;;5093180;28;20422;-72
2022/02/24 00:25:30;;;;;;;13.85;3.35;;;10.20;90.20;;;;;;5069539;28;20506;-71
2022/02/24 00:27:55;;;;;;;15.48;3.28;;;10.20;90.10;;;;;;5093089;28;20966;-73
2022/02/24 00:30:21;;;;;;;16.33;3.00;;;10.10;90.10;;;;;;5068080;28;20428;-72
2022/02/24 00:32:47;;;;;;;14.27;3.38;;;10.20;90.20;;;;;;5090858;28;20409;-75
2022/02/24 00:35:12;;;;;;;15.43;3.07;;;10.10;90.30;;;;;;5093718;28;20799;-73
2022/02/24 00:37:38;;;;;;;15.97;3.20;;;10.10;90.40;;;;;;5098776;28;20420;-73
2022/02/24 00:40:04;;;;;;;15.25;3.53;;;10.10;90.50;;;;;;5100128;28;20422;-73
2022/02/24 00:42:30;;;;;;;15.52;3.13;;;10.20;90.30;;;;;;5090569;28;20456;-73
2022/02/24 00:44:56;;;;;;;17.83;3.47;;;10.10;90.30;;;;;;5089369;28;20417;-74
2022/02/24 00:47:21;;;;;;;17.93;3.30;;;10.10;90.40;;;;;;5070629;28;20398;-73
2022/02/24 00:49:47;;;;;;;15.48;3.30;;;10.10;90.40;;;;;;5095643;28;20422;-73
2022/02/24 00:52:13;;;;;;;16.63;3.27;;;10.10;90.50;;;;;;5092900;28;20497;-72
2022/02/24 00:54:39;;;;;;;13.68;2.97;;;10.10;90.60;;;;;;5096809;28;20444;-72
2022/02/24 00:57:05;;;;;;;14.60;3.40;;;10.10;90.50;;;;;;5087031;28;20414;-72
2022/02/24 00:59:30;;;;;;;15.10;3.40;;;10.10;90.50;;;;;;5087649;28;20413;-72
2022/02/24 01:01:56;;;;;;;15.77;3.50;;;10.10;90.60;;;;;;5091018;28;20408;-72
2022/02/24 01:04:22;;;;;;;14.00;3.63;;;10.10;90.70;;;;;;5094426;28;20541;-72
2022/02/24 01:06:47;;;;;;;19.70;3.67;;;10.10;90.70;;;;;;5088350;28;20436;-72
2022/02/24 01:09:13;;;;;;;15.63;3.30;;;10.00;90.50;;;;;;5089067;28;20462;-72
2022/02/24 01:11:39;;;;;;;13.73;3.10;;;10.00;90.60;;;;;;5088903;28;20413;-72
2022/02/24 01:14:05;;;;;;;12.15;2.97;;;10.00;90.40;;;;;;5097755;28;20451;-71
2022/02/24 01:16:30;;;;;;;17.37;3.30;;;10.00;90.60;;;;;;5093578;28;20447;-72
2022/02/24 01:18:57;;;;;;;18.00;3.08;;;10.00;90.50;;;;;;5089550;28;20420;-73
2022/02/24 01:21:22;;;;;;;17.55;3.30;;;10.00;90.40;;;;;;5086713;28;20471;-73
2022/02/24 01:23:48;;;;;;;16.33;3.07;;;10.00;90.60;;;;;;5085280;28;20406;-72
2022/02/24 01:26:14;;;;;;;14.48;3.20;;;10.00;90.50;;;;;;5085701;28;20405;-72
2022/02/24 01:28:40;;;;;;;18.13;3.57;;;10.00;90.60;;;;;;5088450;28;20413;-71
2022/02/24 01:31:05;;;;;;;16.77;3.38;;;10.00;90.70;;;;;;5069359;28;20752;-72
2022/02/24 01:33:31;;;;;;;15.70;3.20;;;10.00;90.70;;;;;;5088839;28;20418;-72
2022/02/24 01:35:57;;;;;;;16.77;3.50;;;10.00;90.60;;;;;;5075909;28;20410;-72
2022/02/24 01:38:22;;;;;;;18.17;3.27;;;10.00;90.70;;;;;;5086555;28;20957;-72
2022/02/24 01:40:48;;;;;;;17.65;3.28;;;10.00;90.80;;;;;;5072858;28;20718;-73
2022/02/24 01:43:13;;;;;;;13.57;3.28;;;10.00;90.90;;;;;;5087475;28;20441;-73
2022/02/24 01:45:39;;;;;;;18.10;3.10;;;10.10;90.90;;;;;;5090708;28;20440;-74
2022/02/24 01:48:05;;;;;;;16.08;3.10;;;10.10;91.00;;;;;;5087525;28;20440;-73
2022/02/24 01:50:30;;;;;;;15.33;3.27;;;10.10;90.80;;;;;;5099366;28;20545;-73
2022/02/24 01:52:57;;;;;;;19.50;3.35;;;10.10;91.10;;;;;;5094643;28;20431;-73
2022/02/24 01:55:23;;;;;;;14.63;3.00;;;10.10;91.10;;;;;;5092693;28;20469;-74
2022/02/24 01:57:49;;;;;;;17.40;3.25;;;10.10;91.10;;;;;;5091250;28;20406;-74
2022/02/24 02:00:15;;;;;;;22.53;3.73;;;10.10;91.20;;;;;;5096458;28;20412;-72
2022/02/24 02:02:41;;;;;;;19.05;3.28;;;10.10;91.20;;;;;;5089665;28;20434;-72
2022/02/24 02:05:07;;;;;;;17.10;3.20;;;10.10;91.40;;;;;;5089555;28;20463;-73
2022/02/24 02:07:33;;;;;;;15.90;2.90;;;10.10;91.50;;;;;;5087185;28;20437;-74
2022/02/24 02:09:59;;;;;;;21.45;3.42;;;10.10;91.50;;;;;;5092656;28;20500;-72
2022/02/24 02:12:25;;;;;;;17.00;3.08;;;10.00;91.60;;;;;;5086634;28;20489;-73
2022/02/24 02:14:50;;;;;;;15.00;3.47;;;10.10;91.70;;;;;;5068725;28;20425;-73
2022/02/24 02:17:16;;;;;;;17.53;3.80;;;10.00;91.80;;;;;;5084984;28;20410;-73
2022/02/24 02:19:42;;;;;;;19.27;3.65;;;10.10;91.80;;;;;;5086464;28;20416;-71
2022/02/24 02:22:07;;;;;;;13.03;3.10;;;10.10;91.80;;;;;;5070091;28;20409;-72
2022/02/24 02:24:33;;;;;;;14.40;2.85;;;10.10;91.90;;;;;;5083547;28;20420;-72
2022/02/24 02:26:58;;;;;;;16.37;3.20;;;10.10;92.00;;;;;;5067208;28;20925;-72
2022/02/24 02:29:24;;;;;;;20.67;3.43;;;10.10;92.10;;;;;;5085484;28;20407;-72
2022/02/24 02:31:50;;;;;;;14.85;2.70;;;10.20;92.10;;;;;;5092209;28;20400;-73
2022/02/24 02:34:17;;;;;;;15.87;3.00;;;10.10;92.00;;;;;;5076371;28;20398;-74
2022/02/24 02:36:45;;;;;;;17.08;3.60;;;10.20;92.30;;;;;;5086250;28;20807;-73
2022/02/24 02:39:12;;;;;;;19.33;3.38;;;10.10;92.30;;;;;;5084497;28;20418;-74
2022/02/24 02:41:42;;;;;;;18.42;3.05;;;10.10;92.40;;;;;;5091423;28;20411;-75
2022/02/24 02:44:09;;;;;;;18.13;3.30;;;10.10;92.50;;;;;;5067218;28;20937;-75
2022/02/24 02:46:35;;;;;;;17.90;3.08;;;10.00;92.50;;;;;;5086719;28;20414;-75
2022/02/24 02:49:00;;;;;;;17.35;3.33;;;10.00;92.70;;;;;;5084860;28;20497;-75
2022/02/24 02:51:26;;;;;;;15.80;3.40;;;10.00;92.80;;;;;;5084548;28;20422;-74
2022/02/24 02:53:53;;;;;;;16.95;3.40;;;10.00;92.90;;;;;;5070075;28;20474;-75
2022/02/24 02:56:18;;;;;;;15.05;3.03;;;10.00;92.90;;;;;;5086570;28;20421;-75
2022/02/24 02:58:44;;;;;;;14.67;3.10;;;10.00;93.00;;;;;;5093159;28;20876;-72
2022/02/24 03:01:09;;;;;;;14.70;3.08;;;9.90;93.00;;;;;;5095940;28;20881;-73
2022/02/24 03:03:35;;;;;;;15.50;2.63;;;10.00;93.20;;;;;;5084184;28;20418;-75
2022/02/24 03:06:01;;;;;;;16.70;3.30;;;9.90;93.10;;;;;;5067989;28;20454;-73
2022/02/24 03:08:27;;;;;;;15.07;2.90;;;9.90;93.00;;;;;;5084810;28;20449;-74
2022/02/24 03:10:53;;;;;;;15.20;3.05;;;9.90;93.20;;;;;;5085096;28;20417;-73
2022/02/24 03:13:19;;;;;;;18.23;2.87;;;9.90;93.20;;;;;;5084666;28;20412;-74
2022/02/24 03:15:45;;;;;;;15.60;3.10;;;9.90;93.20;;;;;;5051376;28;20525;-74
2022/02/24 03:18:11;;;;;;;14.27;2.90;;;9.90;93.30;;;;;;5068189;28;20405;-73
2022/02/24 03:20:37;;;;;;;16.08;3.03;;;9.90;93.40;;;;;;5083692;28;20819;-75
2022/02/24 03:23:05;;;;;;;12.77;2.60;;;9.90;93.40;;;;;;5082384;28;20510;-74
2022/02/24 03:25:31;;;;;;;14.60;3.00;;;9.90;93.40;;;;;;5080565;28;20413;-75
2022/02/24 03:27:59;;;;;;;21.10;3.35;;;9.90;93.50;;;;;;5083735;28;20413;-75
2022/02/24 03:30:26;;;;;;;16.42;2.83;;;9.90;93.50;;;;;;5066330;28;20453;-72
2022/02/24 03:32:51;;;;;;;15.23;3.13;;;9.90;93.60;;;;;;5084704;28;20441;-72
2022/02/24 03:35:19;;;;;;;14.63;3.00;;;9.90;93.60;;;;;;5086312;28;20424;-73
2022/02/24 03:37:47;;;;;;;15.15;3.17;;;9.90;93.60;;;;;;5087147;28;20410;-73
2022/02/24 03:40:15;;;;;;;17.30;3.17;;;9.90;93.70;;;;;;5084204;28;20443;-73
2022/02/24 03:42:42;;;;;;;15.40;3.30;;;9.80;93.90;;;;;;5087014;28;20421;-75
2022/02/24 03:45:08;;;;;;;15.30;3.15;;;9.90;93.90;;;;;;5083310;28;20420;-75
2022/02/24 03:47:34;;;;;;;16.27;3.25;;;9.80;94.00;;;;;;5085555;28;20771;-75
2022/02/24 03:50:00;;;;;;;12.77;2.80;;;9.80;94.00;;;;;;5089750;28;20417;-72
2022/02/24 03:52:25;;;;;;;14.70;2.72;;;9.80;94.10;;;;;;5091012;28;20464;-73
2022/02/24 03:54:51;;;;;;;19.00;3.07;;;9.80;94.20;;;;;;5089761;28;20474;-72
2022/02/24 03:57:20;;;;;;;18.20;3.13;;;9.80;94.30;;;;;;5092660;28;20456;-73
2022/02/24 03:59:45;;;;;;;13.52;2.85;;;9.80;94.30;;;;;;5090802;28;20420;-72
2022/02/24 04:02:12;;;;;;;16.10;3.20;;;9.80;94.40;;;;;;5089340;28;20916;-72
2022/02/24 04:04:41;;;;;;;16.58;2.90;;;9.80;94.50;;;;;;5072200;28;20453;-74
2022/02/24 04:07:06;;;;;;;14.00;2.85;;;9.80;94.50;;;;;;5090619;28;20502;-73
2022/02/24 04:09:32;;;;;;;18.33;3.25;;;9.80;94.60;;;;;;5089474;28;21330;-72
2022/02/24 04:11:58;;;;;;;13.67;3.00;;;9.80;94.60;;;;;;5055917;28;20414;-73
2022/02/24 04:14:24;;;;;;;17.10;3.20;;;9.80;94.60;;;;;;5072158;28;21128;-73
2022/02/24 04:16:51;;;;;;;16.63;3.17;;;9.90;94.60;;;;;;5087189;28;20800;-73
2022/02/24 04:19:17;;;;;;;17.35;3.10;;;9.90;94.70;;;;;;5071641;28;20492;-72
2022/02/24 04:21:43;;;;;;;17.88;3.30;;;9.90;94.70;;;;;;5071512;28;20563;-72
2022/02/24 04:24:08;;;;;;;18.58;3.55;;;9.90;94.80;;;;;;5071188;28;20498;-73
2022/02/24 04:26:34;;;;;;;16.30;3.50;;;9.90;94.80;;;;;;5089784;28;20455;-74
2022/02/24 04:29:02;;;;;;;16.90;3.10;;;9.90;94.90;;;;;;5089287;28;20417;-74
2022/02/24 04:31:27;;;;;;;14.82;3.40;;;9.90;94.90;;;;;;5087915;28;20413;-74
2022/02/24 04:33:54;;;;;;;16.53;3.17;;;9.90;95.00;;;;;;5082332;28;20436;-74
2022/02/24 04:36:19;;;;;;;16.88;3.15;;;9.90;95.10;;;;;;5084095;28;20902;-74
2022/02/24 04:38:45;;;;;;;19.65;3.47;;;9.90;95.10;;;;;;5091783;28;20416;-72
2022/02/24 04:41:11;;;;;;;16.60;3.10;;;9.90;95.20;;;;;;5090881;28;20424;-72
2022/02/24 04:43:37;;;;;;;21.73;3.80;;;9.90;95.30;;;;;;5090517;28;20401;-71
2022/02/24 04:46:03;;;;;;;19.23;3.67;;;9.90;95.40;;;;;;5070950;28;20532;-71
2022/02/24 04:48:29;;;;;;;17.73;3.08;;;9.90;95.40;;;;;;5085402;28;20415;-72
2022/02/24 04:50:55;;;;;;;20.50;3.70;;;9.90;95.50;;;;;;5070703;28;20413;-72
2022/02/24 04:53:21;;;;;;;16.70;3.25;;;9.90;95.50;;;;;;5089814;28;20414;-73
2022/02/24 04:55:46;;;;;;;13.80;3.30;;;9.80;95.50;;;;;;5072233;28;20413;-72
2022/02/24 04:58:12;;;;;;;20.30;3.67;;;9.80;95.70;;;;;;5085318;28;20504;-72
2022/02/24 05:00:38;;;;;;;19.70;4.00;;;9.80;95.70;;;;;;5087332;28;20416;-72
2022/02/24 05:03:04;;;;;;;18.25;3.67;;;9.80;95.80;;;;;;5095976;28;20428;-72
2022/02/24 05:05:30;;;;;;;16.60;3.58;;;9.80;95.90;;;;;;5069856;28;20486;-71
2022/02/24 05:07:55;;;;;;;18.37;3.63;;;9.80;95.90;;;;;;5088945;28;20491;-72
2022/02/24 05:10:21;;;;;;;22.63;3.97;;;9.80;96.30;;;;;;5072215;28;20425;-72
2022/02/24 05:12:47;;;;;;;18.33;3.27;;;9.80;95.90;;;;;;5070435;28;20440;-72
2022/02/24 05:15:13;;;;;;;16.88;3.42;;;9.80;95.90;;;;;;5088113;28;20767;-73
2022/02/24 05:17:40;;;;;;;17.55;3.55;;;9.80;95.90;;;;;;5087459;28;20878;-73
2022/02/24 05:20:08;;;;;;;16.85;3.45;;;9.80;95.90;;;;;;5066440;28;20438;-72
2022/02/24 05:22:34;;;;;;;16.20;3.20;;;9.80;95.90;;;;;;5087386;28;20417;-73
2022/02/24 05:25:00;;;;;;;14.27;3.58;;;9.80;96.00;;;;;;5067410;28;20493;-73
2022/02/24 05:27:25;;;;;;;20.87;3.83;;;9.80;96.00;;;;;;5099351;28;20532;-72
2022/02/24 05:29:51;;;;;;;16.00;3.90;;;9.80;96.00;;;;;;5086826;28;20476;-72
2022/02/24 05:32:17;;;;;;;17.73;3.40;;;9.80;96.20;;;;;;5082672;28;20909;-73
2022/02/24 05:34:42;;;;;;;18.27;3.80;;;9.80;96.10;;;;;;5071477;28;20418;-73
2022/02/24 05:37:08;;;;;;;18.23;3.70;;;9.80;96.10;;;;;;5087647;28;20426;-73
2022/02/24 05:39:34;;;;;;;15.68;3.75;;;9.80;96.10;;;;;;5073028;28;20452;-73
2022/02/24 05:42:00;;;;;;;20.42;3.60;;;9.80;96.10;;;;;;5082884;28;20530;-73
2022/02/24 05:44:27;;;;;;;22.80;4.15;;;9.80;96.20;;;;;;5090843;28;20422;-74
2022/02/24 05:46:53;;;;;;;25.05;4.00;;;9.80;96.20;;;;;;5089545;28;20474;-74
2022/02/24 05:49:19;;;;;;;21.00;3.43;;;9.80;96.30;;;;;;5084567;28;20437;-72
2022/02/24 05:51:44;;;;;;;19.52;4.18;;;9.80;96.30;;;;;;5086066;28;20507;-73
2022/02/24 05:54:10;;;;;;;20.13;4.00;;;9.80;96.40;;;;;;5083493;28;20417;-72
2022/02/24 05:56:36;;;;;;;19.23;3.92;;;9.80;96.50;;;;;;5070067;28;20418;-74
2022/02/24 05:59:02;;;;;;;21.50;4.20;;;9.70;96.50;;;;;;5086181;28;20413;-73
2022/02/24 06:01:28;;;;;;;17.55;3.45;;;9.70;96.60;;;;;;5085035;28;20504;-73
2022/02/24 06:03:53;;;;;;;19.60;3.80;;;9.70;96.60;;;;;;5095391;28;20898;-72
2022/02/24 06:06:19;;;;;;;24.47;4.03;;;9.70;96.60;;;;;;5086232;28;20414;-74
2022/02/24 06:08:45;;;;;;;20.70;3.85;;;9.70;96.70;;;;;;5065006;28;20434;-72
2022/02/24 06:11:11;;;;;;;23.33;4.20;;;9.70;96.80;;;;;;5084035;28;20960;-72
2022/02/24 06:13:36;;;;;;;16.95;3.45;;;9.70;96.80;;;;;;5068724;28;20413;-73
2022/02/24 06:16:02;;;;;;;18.97;3.67;;;9.80;96.80;;;;;;5069548;28;20898;-73
2022/02/24 06:18:28;;;;;;;17.58;3.60;;;9.70;96.80;;;;;;5075273;28;20425;-73
2022/02/24 06:20:54;;;;;;;19.30;3.63;;;9.70;96.80;;;;;;5081475;28;20413;-73
2022/02/24 06:23:20;;;;;;;17.70;3.47;;;9.70;96.70;;;;;;5089847;28;20614;-72
2022/02/24 06:25:46;;;;;;;17.67;3.50;;;9.70;96.80;;;;;;5069630;28;20963;-73
2022/02/24 06:28:12;;;;;;;24.37;3.80;;;9.70;96.80;;;;;;5070318;28;20424;-73
2022/02/24 06:30:37;;;;;;;18.48;4.13;;;9.70;96.80;;;;;;5087587;28;20417;-73
2022/02/24 06:33:04;;;;;;;20.73;3.67;;;9.70;96.70;;;;;;5085294;28;20455;-73
2022/02/24 06:35:31;;;;;;;17.13;3.30;;;9.80;96.80;;;;;;5083752;28;20412;-72
2022/02/24 06:37:58;;;;;;;16.20;3.43;;;9.80;96.80;;;;;;5086924;28;20429;-72
2022/02/24 06:40:24;;;;;;;19.17;3.60;;;9.80;96.80;;;;;;5066669;28;21086;-72
2022/02/24 06:42:51;;;;;;;20.20;3.73;;;9.80;96.70;;;;;;5081954;28;20440;-74
2022/02/24 06:45:16;;;;;;;18.30;3.72;;;9.80;97.00;;;;;;5062072;28;20399;-73
2022/02/24 06:47:42;;;;;;;18.67;3.77;;;9.80;96.70;;;;;;5090867;28;20406;-73
2022/02/24 06:50:11;;;;;;;19.35;3.67;;;9.80;96.70;;;;;;5095121;28;20436;-72
2022/02/24 06:52:37;;;;;;;17.75;3.80;;;9.80;96.70;;;;;;5087415;28;20898;-73
2022/02/24 06:55:06;;;;;;;15.50;3.47;;;9.80;96.70;;;;;;5069114;28;20410;-73
2022/02/24 06:57:43;;;;;;;19.42;3.55;;;9.80;96.70;;;;;;5089923;28;20880;-72
2022/02/24 07:00:09;;;;;;;18.33;3.60;;;9.80;96.80;;;;;;5088939;28;20461;-74
2022/02/24 07:02:35;;;;;;;17.25;3.55;;;9.80;96.70;;;;;;5055630;28;20429;-72
2022/02/24 07:05:01;;;;;;;16.33;3.87;;;9.80;96.70;;;;;;5096920;28;20415;-73
2022/02/24 07:07:27;;;;;;;21.08;4.22;;;9.80;96.70;;;;;;5091407;28;20418;-73
2022/02/24 07:09:53;;;;;;;17.17;3.70;;;9.80;96.70;;;;;;5092106;28;21001;-73
2022/02/24 07:12:19;;;;;;;20.15;3.72;;;9.70;96.70;;;;;;5094086;28;20503;-72
2022/02/24 07:14:44;;;;;;;19.55;4.15;;;9.70;96.60;;;;;;5096418;28;20411;-74
2022/02/24 07:17:10;;;;;;;21.90;3.93;;;9.70;96.60;;;;;;5073614;28;20898;-73
2022/02/24 07:19:35;;;;;;;18.98;4.15;;;9.70;96.70;;;;;;5087543;28;20420;-72
2022/02/24 07:22:01;;;;;;;16.83;3.90;;;9.70;96.70;;;;;;5068657;28;20842;-73
2022/02/24 07:24:27;;;;;;;19.35;3.88;;;9.70;96.70;;;;;;5087629;28;20417;-72
2022/02/24 07:26:52;;;;;;;18.13;3.40;;;9.70;96.60;;;;;;5071212;28;20409;-73
2022/02/24 07:29:18;;;;;;;18.77;3.63;;;9.70;96.60;;;;;;5073578;28;20824;-74
2022/02/24 07:31:44;;;;;;;15.10;3.50;;;9.70;96.70;;;;;;5089434;28;20466;-73
2022/02/24 07:34:10;;;;;;;17.77;3.63;;;9.70;96.60;;;;;;5094457;28;20411;-73
2022/02/24 07:36:39;;;;;;;18.85;3.30;;;9.80;96.60;;;;;;5074528;28;20728;-73
2022/02/24 07:39:10;;;;;;;18.25;3.95;;;9.80;96.50;;;;;;5088936;28;20498;-72
2022/02/24 07:41:40;;;;;;;16.92;3.80;;;9.80;96.70;;;;;;5093993;28;20508;-73
2022/02/24 07:44:06;;;;;;;17.17;3.77;;;9.80;96.60;;;;;;5076129;28;20395;-73
2022/02/24 07:46:32;;;;;;;15.63;3.60;;;9.80;96.50;;;;;;5089175;28;20912;-73
2022/02/24 07:48:58;;;;;;;16.97;3.60;;;9.80;96.50;;;;;;5094615;28;20409;-73
2022/02/24 07:51:24;;;;;;;14.65;3.40;;;9.80;96.50;;;;;;5075459;28;20395;-73
2022/02/24 07:53:49;;;;;;;19.43;3.53;;;9.80;96.60;;;;;;5080085;28;20476;-72
2022/02/24 07:56:15;;;;;;;17.30;3.28;;;9.80;96.60;;;;;;5073302;28;20409;-74
2022/02/24 07:58:41;;;;;;;11.23;2.88;;;9.90;96.60;;;;;;5074041;28;20446;-75
2022/02/24 08:01:07;;;;;;;14.35;3.50;;;9.90;96.50;;;;;;5099218;28;20449;-73
2022/02/24 08:03:33;;;;;;;15.60;3.43;;;9.90;96.60;;;;;;5090300;28;20920;-73
2022/02/24 08:05:59;;;;;;;16.13;3.40;;;9.90;96.50;;;;;;5090890;28;20413;-74
2022/02/24 08:08:24;;;;;;;17.98;3.22;;;9.90;96.40;;;;;;5093199;28;20442;-73
2022/02/24 08:10:51;;;;;;;16.00;3.70;;;10.00;96.40;;;;;;5075278;28;20508;-73
2022/02/24 08:13:17;;;;;;;14.63;3.10;;;10.00;96.30;;;;;;5089161;28;20485;-72
2022/02/24 08:15:43;;;;;;;13.75;3.30;;;10.00;96.30;;;;;;5071980;28;20413;-73
2022/02/24 08:18:09;;;;;;;16.52;3.20;;;10.00;96.40;;;;;;5078422;28;20398;-71
2022/02/24 08:20:35;;;;;;;16.23;3.03;;;10.00;96.30;;;;;;5099615;28;20469;-71
2022/02/24 08:23:03;;;;;;;14.32;3.35;;;10.00;96.40;;;;;;5096917;28;20934;-73
2022/02/24 08:25:31;;;;;;;14.98;3.47;;;10.00;96.40;;;;;;5097889;28;20410;-72
2022/02/24 08:27:57;;;;;;;17.30;3.35;;;10.00;96.50;;;;;;5092127;28;20401;-73
2022/02/24 08:30:23;;;;;;;16.37;3.50;;;10.00;96.50;;;;;;5094948;28;20418;-73
2022/02/24 08:32:50;;;;;;;15.57;3.60;;;10.00;96.50;;;;;;5092798;28;20405;-73
2022/02/24 08:35:17;;;;;;;14.02;3.50;;;10.00;96.60;;;;;;5070587;28;20472;-72
2022/02/24 08:37:44;;;;;;;16.67;3.78;;;10.00;97.10;;;;;;5089002;28;20414;-73
2022/02/24 08:40:11;;;;;;;13.90;3.47;;;10.00;96.80;;;;;;5086556;28;20458;-73
2022/02/24 08:42:37;;;;;;;15.55;3.20;;;10.00;96.90;;;;;;5063588;28;20451;-73
2022/02/24 08:45:04;;;;;;;14.10;3.37;;;10.00;96.90;;;;;;5086586;28;20414;-72
2022/02/24 08:47:29;;;;;;;14.98;3.70;;;10.10;97.10;;;;;;5088190;28;20386;-74
2022/02/24 08:49:55;;;;;;;16.77;3.53;;;10.10;97.10;;;;;;5099059;28;20464;-73
2022/02/24 08:52:21;;;;;;;13.10;3.38;;;10.10;97.00;;;;;;5089564;28;20586;-73
2022/02/24 08:54:47;;;;;;;17.38;4.07;;;10.20;97.00;;;;;;5079955;28;20435;-73
2022/02/24 08:57:12;;;;;;;11.85;3.45;;;10.20;97.00;;;;;;5087689;28;20422;-73
2022/02/24 08:59:38;;;;;;;17.50;3.53;;;10.20;96.90;;;;;;5091037;28;20409;-72
2022/02/24 09:02:04;;;;;;;16.15;3.30;;;10.40;96.80;;;;;;5088998;28;20414;-72
2022/02/24 09:04:30;;;;;;;16.77;3.53;;;10.50;96.70;;;;;;5072236;28;20397;-74
2022/02/24 09:06:56;;;;;;;18.83;3.92;;;10.60;96.30;;;;;;5089238;28;20651;-73
2022/02/24 09:09:24;;;;;;;18.70;3.30;;;10.60;96.10;;;;;;5089620;28;20758;-73
2022/02/24 09:11:50;;;;;;;13.65;3.08;;;10.70;95.90;;;;;;5087972;28;20425;-73
2022/02/24 09:14:16;;;;;;;16.15;3.20;;;10.70;95.70;;;;;;5068749;28;20410;-72
2022/02/24 09:16:45;;;;;;;14.83;2.80;;;10.60;95.70;;;;;;5088515;28;20414;-73
2022/02/24 09:19:11;;;;;;;11.93;2.72;;;10.60;95.50;;;;;;5090522;28;20466;-73
2022/02/24 09:21:40;;;;;;;15.18;2.70;;;10.50;95.60;;;;;;5088326;28;20414;-73
2022/02/24 09:24:06;;;;;;;14.03;2.90;;;10.50;95.50;;;;;;5071296;28;20410;-73
2022/02/24 09:26:33;;;;;;;12.50;2.67;;;10.50;95.50;;;;;;5088635;28;20436;-74
2022/02/24 09:29:00;;;;;;;13.52;2.90;;;10.50;95.40;;;;;;5090521;28;20897;-72
2022/02/24 09:31:27;;;;;;;11.02;2.50;;;10.50;95.40;;;;;;5087201;28;20414;-73
2022/02/24 09:33:52;;;;;;;14.32;3.17;;;10.50;95.20;;;;;;5072241;28;20402;-71
2022/02/24 09:36:18;;;;;;;16.07;3.00;;;10.50;95.10;;;;;;5090309;28;20406;-72
2022/02/24 09:38:44;;;;;;;13.23;2.78;;;10.60;95.10;;;;;;5097629;28;20405;-72
2022/02/24 09:41:11;;;;;;;11.90;2.60;;;10.60;94.90;;;;;;5088044;28;20413;-72
2022/02/24 09:43:37;;;;;;;15.27;3.03;;;10.60;94.80;;;;;;5088781;28;20472;-72
2022/02/24 09:46:07;;;;;;;13.85;3.10;;;10.70;94.70;;;;;;5085961;28;20398;-72
2022/02/24 09:48:35;;;;;;;11.07;2.65;;;10.70;94.60;;;;;;5070968;28;20766;-73
2022/02/24 09:51:03;;;;;;;12.98;2.90;;;10.80;94.50;;;;;;5085517;28;20410;-74
2022/02/24 09:53:30;;;;;;;14.38;2.75;;;10.80;94.50;;;;;;5087541;28;20421;-73
2022/02/24 09:55:57;;;;;;;14.77;2.88;;;10.80;94.40;;;;;;5087902;28;20402;-73
2022/02/24 09:58:24;;;;;;;19.75;3.67;;;10.90;94.30;;;;;;5090025;28;20409;-72
2022/02/24 10:00:50;;;;;;;12.75;2.97;;;10.90;94.20;;;;;;5070630;28;20409;-73
2022/02/24 10:03:29;;;;;;;13.98;3.00;;;10.90;94.40;;;;;;5071465;28;20433;-73
2022/02/24 10:05:55;;;;;;;14.20;3.00;;;10.90;94.20;;;;;;5087535;28;20429;-73
2022/02/24 10:08:28;;;;;;;13.93;3.00;;;10.90;94.20;;;;;;5089457;28;20425;-73
2022/02/24 10:10:55;;;;;;;14.98;2.83;;;10.90;94.40;;;;;;5086956;28;20410;-73
2022/02/24 10:13:20;;;;;;;12.43;3.00;;;10.90;94.30;;;;;;5087014;28;20505;-73
2022/02/24 10:15:54;;;;;;;14.40;3.20;;;10.90;94.10;;;;;;5087597;28;20524;-73
2022/02/24 10:18:24;;;;;;;12.97;3.00;;;10.90;94.10;;;;;;5086666;28;20418;-73
2022/02/24 10:21:14;;;;;;;15.55;3.47;;;10.90;94.10;;;;;;5087652;28;20425;-73
2022/02/24 10:23:40;;;;;;;13.95;2.90;;;10.90;94.30;;;;;;5087568;28;20413;-74
2022/02/24 10:26:11;;;;;;;14.15;2.92;;;10.90;94.30;;;;;;5085289;28;20740;-74
2022/02/24 10:28:42;;;;;;;15.88;3.08;;;10.90;94.20;;;;;;5069032;28;20402;-74
2022/02/24 10:31:14;;;;;;;16.88;3.38;;;11.00;94.10;;;;;;5086993;28;20421;-73
2022/02/24 10:33:43;;;;;;;17.17;3.30;;;11.00;94.10;;;;;;5088882;28;20470;-74
2022/02/24 10:36:16;;;;;;;13.77;3.05;;;11.10;94.00;;;;;;5089822;28;20975;-74
2022/02/24 10:38:44;;;;;;;14.65;3.58;;;11.10;93.90;;;;;;5087154;28;20425;-71
2022/02/24 10:41:10;;;;;;;11.43;3.22;;;11.10;93.90;;;;;;5081028;28;20501;-73
2022/02/24 10:43:36;;;;;;;14.60;3.63;;;11.00;94.00;;;;;;5069122;28;20501;-72
2022/02/24 10:46:17;;;;;;;16.58;4.03;;;11.00;93.90;;;;;;5069793;28;20471;-72
2022/02/24 10:48:56;;;;;;;14.57;3.70;;;11.00;94.00;;;;;;5068967;28;20782;-72
2022/02/24 10:51:28;;;;;;;16.30;3.50;;;10.90;94.50;;;;;;5068506;28;20425;-71
2022/02/24 10:54:04;;;;;;;15.15;3.50;;;10.90;94.20;;;;;;5087079;28;20599;-72
2022/02/24 10:56:32;;;;;;;15.02;3.97;;;10.90;94.20;;;;;;5085916;28;20418;-72
2022/02/24 10:58:58;;;;;;;17.80;3.85;;;10.90;94.40;;;;;;5087946;28;20425;-71
2022/02/24 11:01:25;;;;;;;14.63;3.85;;;10.90;94.40;;;;;;5085451;28;20787;-72
2022/02/24 11:03:54;;;;;;;17.65;3.70;;;10.90;94.60;;;;;;5087059;28;20412;-72
2022/02/24 11:06:22;;;;;;;17.95;3.65;;;10.90;94.70;;;;;;5086037;28;20416;-71
2022/02/24 11:08:49;;;;;;;15.60;3.53;;;10.90;95.40;;;;;;5070277;28;20754;-71
2022/02/24 11:11:20;;;;;;;15.52;4.13;;;10.80;96.10;;;;;;5084918;28;20508;-72
2022/02/24 11:13:47;;;;;;;18.48;4.10;;;10.70;97.10;;;;;;5088592;28;20467;-72
2022/02/24 11:16:13;;;;;;;17.02;4.78;;;10.50;98.00;;;;;;5085234;28;20406;-72
2022/02/24 11:18:40;;;;;;;16.20;4.80;;;10.40;98.60;;;;;;5088522;28;20454;-72
2022/02/24 11:21:06;;;;;;;16.40;4.05;;;10.30;99.20;;;;;;5068997;28;20808;-72
2022/02/24 11:23:33;;;;;;;16.60;4.10;;;10.20;99.60;;;;;;5084716;28;20526;-72
2022/02/24 11:26:20;;;;;;;17.80;4.45;;;10.10;99.90;;;;;;5069319;28;20489;-72
2022/02/24 11:29:19;;;;;;;16.15;4.28;;;10.00;99.90;;;;;;5098681;28;20406;-73
2022/02/24 11:31:57;;;;;;;18.30;4.50;;;9.90;99.90;;;;;;5085392;28;20893;-72
2022/02/24 11:34:58;;;;;;;18.50;4.88;;;9.80;99.90;;;;;;5088287;28;20382;-72
2022/02/24 11:37:28;;;;;;;21.15;4.50;;;9.70;99.90;;;;;;5085612;28;20413;-71
2022/02/24 11:40:11;;;;;;;16.85;5.28;;;9.70;99.90;;;;;;5087772;28;20893;-73
2022/02/24 11:42:39;;;;;;;18.33;4.70;;;9.60;99.90;;;;;;5068985;28;20789;-75
2022/02/24 11:45:23;;;;;;;21.90;5.25;;;9.50;99.90;;;;;;5067727;28;20409;-73
2022/02/24 11:48:02;;;;;;;20.17;5.78;;;9.40;99.90;;;;;;5093209;28;20913;-76
2022/02/24 11:50:53;;;;;;;19.52;5.20;;;9.40;99.90;;;;;;5067257;28;20454;-74
2022/02/24 11:53:27;;;;;;;16.20;5.00;;;9.30;99.90;;;;;;5090516;28;20413;-76
2022/02/24 11:55:58;;;;;;;20.52;5.50;;;9.30;99.90;;;;;;5071179;28;20548;-74
2022/02/24 11:58:51;;;;;;;14.80;4.90;;;9.20;99.90;;;;;;5087985;28;20449;-76
2022/02/24 12:01:18;;;;;;;16.08;4.70;;;9.20;99.90;;;;;;5060817;28;20431;-77
2022/02/24 12:03:43;;;;;;;15.18;4.85;;;9.10;99.90;;;;;;5104118;28;20505;-75
2022/02/24 12:06:09;;;;;;;16.43;5.03;;;9.10;99.90;;;;;;5073654;28;20516;-74
2022/02/24 12:09:14;;;;;;;16.75;4.82;;;9.10;99.90;;;;;;5084361;28;20442;-73
2022/02/24 12:11:57;;;;;;;15.38;4.82;;;9.10;99.90;;;;;;5101158;28;20408;-76
2022/02/24 12:14:22;;;;;;;17.05;4.68;;;9.10;99.90;;;;;;5078842;28;20421;-75
2022/02/24 12:17:03;;;;;;;15.60;4.40;;;9.10;99.90;;;;;;5076070;28;20417;-78
2022/02/24 12:19:42;;;;;;;13.70;4.07;;;9.20;99.90;;;;;;5110127;27;20419;-74
2022/02/24 12:22:19;;;;;;;17.70;3.63;;;9.20;99.90;;;;;;5082131;28;20404;-77
2022/02/24 12:24:53;;;;;;;18.27;3.45;;;9.20;99.90;;;;;;5097155;28;20388;-79
2022/02/24 12:27:28;;;;;;;25.63;3.70;;;9.10;99.90;;;;;;5069543;28;20412;-74
2022/02/24 12:30:15;;;;;;;27.92;3.45;;;9.00;99.90;;;;;;5092939;28;20886;-76
2022/02/24 12:32:55;;;;;;;22.10;3.07;;;8.80;99.90;;;;;;5090361;28;20412;-77
2022/02/24 12:35:22;;;;;;;17.30;2.67;;;8.70;99.90;;;;;;5087970;28;20418;-78
2022/02/24 12:37:50;;;;;;;11.50;2.30;;;8.60;99.90;;;;;;5092051;28;20418;-75
2022/02/24 12:40:38;;;;;;;11.98;1.77;;;8.50;99.90;;;;;;5074308;28;21174;-72
2022/02/24 12:43:09;;;;;;;15.48;2.10;;;8.40;99.90;;;;;;5088999;28;20396;-78